createdAt,value
2024-05-09T00:00:52.830Z,1011.9
2024-05-09T00:02:08.975Z,1011.9
2024-05-09T00:03:25.108Z,1011.9
2024-05-09T00:04:41.259Z,1011.9
2024-05-09T00:05:57.385Z,1011.9
2024-05-09T00:07:13.510Z,1011.9
2024-05-09T00:08:29.647Z,1011.9
2024-05-09T00:09:45.839Z,1011.9
2024-05-09T00:11:01.079Z,1011.9
2024-05-09T00:12:17.273Z,1011.9
2024-05-09T00:13:32.480Z,1011.9
2024-05-09T00:14:48.626Z,1011.9
2024-05-09T00:16:04.758Z,1011.9
2024-05-09T00:17:20.887Z,1011.9
2024-05-09T00:18:37.029Z,1011.8
2024-05-09T00:19:53.147Z,1011.8
2024-05-09T00:21:09.310Z,1011.8
2024-05-09T00:22:25.432Z,1011.8
2024-05-09T00:23:41.559Z,1011.8
2024-05-09T00:24:57.695Z,1011.8
2024-05-09T00:26:13.827Z,1011.8
2024-05-09T00:27:29.978Z,1011.7
2024-05-09T00:28:46.121Z,1011.7
2024-05-09T00:30:02.244Z,1011.7
2024-05-09T00:31:18.385Z,1011.8
2024-05-09T00:32:34.524Z,1011.8
2024-05-09T00:33:50.659Z,1011.8
2024-05-09T00:35:06.797Z,1011.8
2024-05-09T00:36:22.922Z,1011.8
2024-05-09T00:37:39.059Z,1011.8
2024-05-09T00:38:55.191Z,1011.8
2024-05-09T00:40:11.348Z,1011.8
2024-05-09T00:41:27.487Z,1011.8
2024-05-09T00:42:43.606Z,1011.8
2024-05-09T00:43:59.750Z,1011.8
2024-05-09T00:45:15.933Z,1011.8
2024-05-09T00:46:31.171Z,1011.8
2024-05-09T00:47:46.384Z,1011.8
2024-05-09T00:49:01.526Z,1011.8
2024-05-09T00:50:17.665Z,1011.8
2024-05-09T00:51:33.791Z,1011.9
2024-05-09T00:52:49.923Z,1011.9
2024-05-09T00:54:06.062Z,1011.9
2024-05-09T00:55:22.207Z,1011.9
2024-05-09T00:56:38.347Z,1011.9
2024-05-09T00:57:54.487Z,1011.9
2024-05-09T00:59:10.616Z,1011.9
2024-05-09T01:00:26.736Z,1011.9
2024-05-09T01:01:42.894Z,1011.8
2024-05-09T01:02:59.032Z,1011.8
2024-05-09T01:04:15.165Z,1011.8
2024-05-09T01:05:31.289Z,1011.8
2024-05-09T01:06:47.416Z,1011.8
2024-05-09T01:08:03.572Z,1011.8
2024-05-09T01:09:19.701Z,1011.8
2024-05-09T01:10:35.849Z,1011.8
2024-05-09T01:11:51.966Z,1011.8
2024-05-09T01:13:08.105Z,1011.8
2024-05-09T01:14:24.251Z,1011.8
2024-05-09T01:15:40.392Z,1011.8
2024-05-09T01:16:56.524Z,1011.8
2024-05-09T01:18:12.658Z,1011.8
2024-05-09T01:19:28.780Z,1011.7
2024-05-09T01:20:44.933Z,1011.8
2024-05-09T01:22:01.063Z,1011.8
2024-05-09T01:23:17.204Z,1011.8
2024-05-09T01:24:33.343Z,1011.8
2024-05-09T01:25:49.472Z,1011.8
2024-05-09T01:27:05.610Z,1011.8
2024-05-09T01:28:21.752Z,1011.8
2024-05-09T01:29:37.878Z,1011.8
2024-05-09T01:30:54.014Z,1011.8
2024-05-09T01:32:10.152Z,1011.8
2024-05-09T01:33:26.299Z,1011.7
2024-05-09T01:34:42.433Z,1011.7
2024-05-09T01:35:58.628Z,1011.7
2024-05-09T01:37:13.855Z,1011.7
2024-05-09T01:38:29.063Z,1011.8
2024-05-09T01:39:45.203Z,1011.7
2024-05-09T01:41:01.340Z,1011.8
2024-05-09T01:42:17.478Z,1011.7
2024-05-09T01:43:33.607Z,1011.7
2024-05-09T01:44:49.752Z,1011.7
2024-05-09T01:46:05.875Z,1011.7
2024-05-09T01:47:22.009Z,1011.7
2024-05-09T01:48:38.155Z,1011.7
2024-05-09T01:49:54.299Z,1011.8
2024-05-09T01:51:10.429Z,1011.8
2024-05-09T01:52:26.566Z,1011.8
2024-05-09T01:53:42.692Z,1011.8
2024-05-09T01:54:58.834Z,1011.7
2024-05-09T01:56:14.972Z,1011.7
2024-05-09T01:57:31.115Z,1011.8
2024-05-09T01:58:47.240Z,1011.8
2024-05-09T02:00:03.374Z,1011.8
2024-05-09T02:01:19.518Z,1011.8
2024-05-09T02:02:35.668Z,1011.8
2024-05-09T02:03:51.786Z,1011.8
2024-05-09T02:05:07.932Z,1011.8
2024-05-09T02:06:24.059Z,1011.8
2024-05-09T02:07:40.200Z,1011.8
2024-05-09T02:08:56.331Z,1011.8
2024-05-09T02:10:12.532Z,1011.8
2024-05-09T02:11:27.773Z,1011.8
2024-05-09T02:12:42.983Z,1011.8
2024-05-09T02:13:59.112Z,1011.7
2024-05-09T02:15:15.247Z,1011.8
2024-05-09T02:16:31.382Z,1011.8
2024-05-09T02:17:47.508Z,1011.7
2024-05-09T02:19:03.000Z,1011.8
2024-05-09T02:20:19.790Z,1011.8
2024-05-09T02:21:35.935Z,1011.7
2024-05-09T02:22:52.056Z,1011.8
2024-05-09T02:24:08.201Z,1011.8
2024-05-09T02:25:24.341Z,1011.8
2024-05-09T02:26:40.478Z,1011.8
2024-05-09T02:27:56.603Z,1011.8
2024-05-09T02:29:12.733Z,1011.8
2024-05-09T02:30:28.866Z,1011.8
2024-05-09T02:31:45.022Z,1011.8
2024-05-09T02:33:01.146Z,1011.8
2024-05-09T02:34:17.296Z,1011.8
2024-05-09T02:35:33.421Z,1011.8
2024-05-09T02:36:49.565Z,1011.8
2024-05-09T02:38:05.694Z,1011.8
2024-05-09T02:39:21.835Z,1011.8
2024-05-09T02:40:37.970Z,1011.8
2024-05-09T02:41:54.113Z,1011.8
2024-05-09T02:43:10.242Z,1011.8
2024-05-09T02:44:26.436Z,1011.8
2024-05-09T02:45:41.679Z,1011.8
2024-05-09T02:46:57.883Z,1011.8
2024-05-09T02:48:13.089Z,1011.8
2024-05-09T02:49:29.207Z,1011.8
2024-05-09T02:50:45.355Z,1011.8
2024-05-09T02:52:01.488Z,1011.8
2024-05-09T02:53:17.610Z,1011.7
2024-05-09T02:54:33.755Z,1011.8
2024-05-09T02:55:49.887Z,1011.8
2024-05-09T02:57:06.020Z,1011.7
2024-05-09T02:58:22.167Z,1011.8
2024-05-09T02:59:38.292Z,1011.8
2024-05-09T03:00:54.450Z,1011.8
2024-05-09T03:02:10.575Z,1011.7
2024-05-09T03:03:26.713Z,1011.7
2024-05-09T03:04:42.833Z,1011.7
2024-05-09T03:05:58.978Z,1011.8
2024-05-09T03:07:15.134Z,1011.8
2024-05-09T03:08:31.263Z,1011.8
2024-05-09T03:09:47.393Z,1011.8
2024-05-09T03:11:03.533Z,1011.8
2024-05-09T03:12:19.652Z,1011.8
2024-05-09T03:13:35.799Z,1011.8
2024-05-09T03:14:51.935Z,1011.7
2024-05-09T03:16:08.065Z,1011.7
2024-05-09T03:17:24.208Z,1011.7
2024-05-09T03:18:40.335Z,1011.7
2024-05-09T03:19:56.550Z,1011.8
2024-05-09T03:21:11.801Z,1011.7
2024-05-09T03:22:27.013Z,1011.7
2024-05-09T03:23:43.164Z,1011.7
2024-05-09T03:24:59.291Z,1011.7
2024-05-09T03:26:15.429Z,1011.8
2024-05-09T03:27:31.561Z,1011.7
2024-05-09T03:28:47.680Z,1011.7
2024-05-09T03:30:03.833Z,1011.8
2024-05-09T03:31:19.967Z,1011.7
2024-05-09T03:32:36.108Z,1011.7
2024-05-09T03:33:52.229Z,1011.7
2024-05-09T03:35:08.367Z,1011.7
2024-05-09T03:36:24.526Z,1011.7
2024-05-09T03:37:40.659Z,1011.6
2024-05-09T03:38:56.788Z,1011.7
2024-05-09T03:40:12.917Z,1011.7
2024-05-09T03:41:29.047Z,1011.7
2024-05-09T03:42:45.190Z,1011.7
2024-05-09T03:44:01.327Z,1011.7
2024-05-09T03:45:17.456Z,1011.7
2024-05-09T03:46:33.592Z,1011.7
2024-05-09T03:47:49.736Z,1011.7
2024-05-09T03:49:05.887Z,1011.7
2024-05-09T03:50:22.019Z,1011.7
2024-05-09T03:51:38.134Z,1011.7
2024-05-09T03:52:54.273Z,1011.7
2024-05-09T03:54:10.470Z,1011.8
2024-05-09T03:55:25.715Z,1011.8
2024-05-09T03:56:40.907Z,1011.8
2024-05-09T03:57:57.046Z,1011.7
2024-05-09T03:59:13.201Z,1011.7
2024-05-09T04:00:29.330Z,1011.6
2024-05-09T04:01:45.457Z,1011.7
2024-05-09T04:03:01.593Z,1011.7
2024-05-09T04:04:17.740Z,1011.7
2024-05-09T04:05:33.872Z,1011.7
2024-05-09T04:06:50.020Z,1011.7
2024-05-09T04:08:06.155Z,1011.7
2024-05-09T04:09:22.275Z,1011.7
2024-05-09T04:10:38.404Z,1011.7
2024-05-09T04:11:54.551Z,1011.7
2024-05-09T04:13:10.701Z,1011.7
2024-05-09T04:14:26.835Z,1011.7
2024-05-09T04:15:42.951Z,1011.8
2024-05-09T04:16:59.092Z,1011.7
2024-05-09T04:18:15.240Z,1011.8
2024-05-09T04:19:31.379Z,1011.8
2024-05-09T04:20:47.511Z,1011.8
2024-05-09T04:22:03.644Z,1011.8
2024-05-09T04:23:19.772Z,1011.8
2024-05-09T04:24:35.929Z,1011.8
2024-05-09T04:25:52.047Z,1011.8
2024-05-09T04:27:08.197Z,1011.8
2024-05-09T04:28:24.384Z,1011.8
2024-05-09T04:29:39.620Z,1011.8
2024-05-09T04:30:55.814Z,1011.8
2024-05-09T04:32:11.023Z,1011.8
2024-05-09T04:33:27.141Z,1011.8
2024-05-09T04:34:43.300Z,1011.8
2024-05-09T04:35:59.443Z,1011.8
2024-05-09T04:37:15.567Z,1011.9
2024-05-09T04:38:31.708Z,1011.8
2024-05-09T04:39:47.835Z,1011.8
2024-05-09T04:41:03.980Z,1011.8
2024-05-09T04:42:20.123Z,1011.9
2024-05-09T04:43:36.244Z,1011.9
2024-05-09T04:44:52.377Z,1011.9
2024-05-09T04:46:08.515Z,1011.9
2024-05-09T04:47:24.654Z,1011.9
2024-05-09T04:48:40.791Z,1011.9
2024-05-09T04:49:56.933Z,1011.9
2024-05-09T04:51:13.052Z,1011.9
2024-05-09T04:52:29.202Z,1011.9
2024-05-09T04:53:45.333Z,1011.9
2024-05-09T04:55:01.471Z,1011.9
2024-05-09T04:56:17.615Z,1011.9
2024-05-09T04:57:33.734Z,1012
2024-05-09T04:58:49.876Z,1011.9
2024-05-09T05:00:06.013Z,1011.9
2024-05-09T05:01:22.153Z,1012
2024-05-09T05:02:38.299Z,1011.9
2024-05-09T05:03:54.476Z,1012
2024-05-09T05:05:09.742Z,1012
2024-05-09T05:06:24.965Z,1011.9
2024-05-09T05:07:40.107Z,1011.9
2024-05-09T05:08:56.262Z,1012
2024-05-09T05:10:12.393Z,1012
2024-05-09T05:11:28.530Z,1012
2024-05-09T05:12:44.652Z,1012
2024-05-09T05:14:00.780Z,1012
2024-05-09T05:15:16.941Z,1012
2024-05-09T05:16:33.077Z,1012
2024-05-09T05:17:49.204Z,1012
2024-05-09T05:19:05.341Z,1012
2024-05-09T05:20:21.461Z,1012
2024-05-09T05:21:37.621Z,1012
2024-05-09T05:22:53.754Z,1012.1
2024-05-09T05:24:09.877Z,1012
2024-05-09T05:25:26.025Z,1012.1
2024-05-09T05:26:42.143Z,1012.1
2024-05-09T05:27:58.297Z,1012.1
2024-05-09T05:29:14.425Z,1012
2024-05-09T05:30:30.556Z,1012
2024-05-09T05:31:46.689Z,1012
2024-05-09T05:33:02.822Z,1012.1
2024-05-09T05:34:18.980Z,1012.1
2024-05-09T05:35:35.107Z,1012.1
2024-05-09T05:36:51.235Z,1012.1
2024-05-09T05:38:07.371Z,1012
2024-05-09T05:39:23.513Z,1012
2024-05-09T05:40:39.662Z,1012.1
2024-05-09T05:41:55.802Z,1012.1
2024-05-09T05:43:11.933Z,1012.1
2024-05-09T05:44:28.061Z,1012.1
2024-05-09T05:45:44.190Z,1012.1
2024-05-09T05:47:00.338Z,1012.1
2024-05-09T05:48:16.471Z,1012.1
2024-05-09T05:49:32.597Z,1012.1
2024-05-09T05:50:48.743Z,1012.1
2024-05-09T05:52:04.882Z,1012.1
2024-05-09T05:53:21.022Z,1012.2
2024-05-09T05:54:37.217Z,1012.1
2024-05-09T05:55:52.450Z,1012.2
2024-05-09T05:57:07.662Z,1012.1
2024-05-09T05:58:23.799Z,1012.1
2024-05-09T05:59:39.922Z,1012.1
2024-05-09T06:00:56.062Z,1012.1
2024-05-09T06:02:12.195Z,1012.1
2024-05-09T06:03:28.344Z,1012.1
2024-05-09T06:04:44.473Z,1012.1
2024-05-09T06:06:00.612Z,1012.1
2024-05-09T06:07:16.735Z,1012.2
2024-05-09T06:08:32.869Z,1012.1
2024-05-09T06:09:49.025Z,1012.2
2024-05-09T06:11:05.167Z,1012.2
2024-05-09T06:12:21.290Z,1012.1
2024-05-09T06:13:37.422Z,1012.2
2024-05-09T06:14:53.566Z,1012.1
2024-05-09T06:16:09.000Z,1012.1
2024-05-09T06:17:25.843Z,1012.1
2024-05-09T06:18:41.968Z,1012.1
2024-05-09T06:19:58.116Z,1012.1
2024-05-09T06:21:14.248Z,1012.1
2024-05-09T06:22:30.387Z,1012.1
2024-05-09T06:23:46.517Z,1012.1
2024-05-09T06:25:02.658Z,1012.1
2024-05-09T06:26:18.787Z,1012.1
2024-05-09T06:27:34.910Z,1012
2024-05-09T06:28:51.130Z,1012.1
2024-05-09T06:30:06.355Z,1012.1
2024-05-09T06:31:21.575Z,1012.1
2024-05-09T06:32:37.716Z,1012.1
2024-05-09T06:33:53.857Z,1012.1
2024-05-09T06:35:09.971Z,1012
2024-05-09T06:36:26.110Z,1012.1
2024-05-09T06:37:42.247Z,1012.1
2024-05-09T06:38:58.392Z,1012
2024-05-09T06:40:14.520Z,1012.1
2024-05-09T06:41:30.658Z,1012
2024-05-09T06:42:46.805Z,1012.1
2024-05-09T06:44:02.934Z,1012.1
2024-05-09T06:45:19.079Z,1012.1
2024-05-09T06:46:35.205Z,1012.1
2024-05-09T06:47:51.344Z,1012
2024-05-09T06:49:07.471Z,1012
2024-05-09T06:50:23.609Z,1012.1
2024-05-09T06:51:39.764Z,1012.1
2024-05-09T06:52:55.896Z,1012
2024-05-09T06:54:12.018Z,1012
2024-05-09T06:55:28.159Z,1012
2024-05-09T06:56:44.283Z,1012
2024-05-09T06:58:00.443Z,1012
2024-05-09T06:59:16.578Z,1012
2024-05-09T07:00:32.708Z,1012
2024-05-09T07:01:48.834Z,1012
2024-05-09T07:03:05.020Z,1012.1
2024-05-09T07:04:20.274Z,1012
2024-05-09T07:05:36.449Z,1012.1
2024-05-09T07:06:51.663Z,1012
2024-05-09T07:08:07.800Z,1012
2024-05-09T07:09:23.944Z,1012.1
2024-05-09T07:10:40.074Z,1012
2024-05-09T07:11:56.197Z,1012.1
2024-05-09T07:13:12.330Z,1012
2024-05-09T07:14:28.482Z,1012
2024-05-09T07:15:44.628Z,1012
2024-05-09T07:17:00.753Z,1012
2024-05-09T07:18:16.886Z,1012
2024-05-09T07:19:33.014Z,1012.1
2024-05-09T07:20:49.171Z,1012.1
2024-05-09T07:22:05.303Z,1012.1
2024-05-09T07:23:21.444Z,1012.1
2024-05-09T07:24:37.566Z,1012.1
2024-05-09T07:25:53.710Z,1012
2024-05-09T07:27:09.853Z,1012
2024-05-09T07:28:25.992Z,1012
2024-05-09T07:29:42.110Z,1012
2024-05-09T07:30:58.255Z,1012.1
2024-05-09T07:32:14.373Z,1012
2024-05-09T07:33:30.539Z,1012.1
2024-05-09T07:34:46.655Z,1012
2024-05-09T07:36:02.797Z,1012
2024-05-09T07:37:18.938Z,1012
2024-05-09T07:38:35.115Z,1012
2024-05-09T07:39:50.387Z,1012
2024-05-09T07:41:05.587Z,1012
2024-05-09T07:42:21.730Z,1012
2024-05-09T07:43:37.862Z,1012
2024-05-09T07:44:54.001Z,1012
2024-05-09T07:46:10.137Z,1012
2024-05-09T07:47:26.262Z,1012
2024-05-09T07:48:42.395Z,1012
2024-05-09T07:49:58.559Z,1011.9
2024-05-09T07:51:14.685Z,1012
2024-05-09T07:52:30.816Z,1011.9
2024-05-09T07:53:46.956Z,1011.9
2024-05-09T07:55:03.084Z,1011.9
2024-05-09T07:56:19.234Z,1011.9
2024-05-09T07:57:35.359Z,1011.9
2024-05-09T07:58:51.506Z,1011.9
2024-05-09T08:00:07.623Z,1011.9
2024-05-09T08:01:23.000Z,1011.9
2024-05-09T08:02:39.919Z,1011.9
2024-05-09T08:03:56.047Z,1011.9
2024-05-09T08:05:12.170Z,1011.8
2024-05-09T08:06:28.319Z,1011.8
2024-05-09T08:07:44.449Z,1011.9
2024-05-09T08:09:00.597Z,1011.8
2024-05-09T08:10:16.734Z,1011.8
2024-05-09T08:11:32.864Z,1011.8
2024-05-09T08:12:49.052Z,1011.8
2024-05-09T08:14:04.285Z,1011.8
2024-05-09T08:15:19.504Z,1011.8
2024-05-09T08:16:34.660Z,1011.8
2024-05-09T08:17:50.796Z,1011.8
2024-05-09T08:19:06.935Z,1011.8
2024-05-09T08:20:23.056Z,1011.8
2024-05-09T08:21:39.190Z,1011.8
2024-05-09T08:22:55.327Z,1011.7
2024-05-09T08:24:11.477Z,1011.7
2024-05-09T08:25:27.622Z,1011.8
2024-05-09T08:26:43.740Z,1011.7
2024-05-09T08:27:59.878Z,1011.7
2024-05-09T08:29:16.005Z,1011.7
2024-05-09T08:30:32.159Z,1011.7
2024-05-09T08:31:48.296Z,1011.7
2024-05-09T08:33:04.424Z,1011.7
2024-05-09T08:34:20.552Z,1011.8
2024-05-09T08:35:36.688Z,1011.7
2024-05-09T08:36:52.842Z,1011.7
2024-05-09T08:38:08.966Z,1011.7
2024-05-09T08:39:25.109Z,1011.7
2024-05-09T08:40:41.234Z,1011.7
2024-05-09T08:41:57.374Z,1011.8
2024-05-09T08:43:13.528Z,1011.7
2024-05-09T08:44:29.644Z,1011.7
2024-05-09T08:45:45.781Z,1011.7
2024-05-09T08:47:01.920Z,1011.7
2024-05-09T08:48:18.046Z,1011.7
2024-05-09T08:49:34.206Z,1011.7
2024-05-09T08:50:50.332Z,1011.7
2024-05-09T08:52:06.458Z,1011.7
2024-05-09T08:53:22.602Z,1011.7
2024-05-09T08:54:38.738Z,1011.7
2024-05-09T08:55:54.883Z,1011.7
2024-05-09T08:57:11.018Z,1011.7
2024-05-09T08:58:27.155Z,1011.7
2024-05-09T08:59:43.281Z,1011.7
2024-05-09T09:00:59.407Z,1011.6
2024-05-09T09:02:15.553Z,1011.6
2024-05-09T09:03:31.747Z,1011.6
2024-05-09T09:04:46.984Z,1011.6
2024-05-09T09:06:02.206Z,1011.6
2024-05-09T09:07:18.331Z,1011.6
2024-05-09T09:08:34.456Z,1011.6
2024-05-09T09:09:50.605Z,1011.6
2024-05-09T09:11:06.723Z,1011.6
2024-05-09T09:12:22.886Z,1011.6
2024-05-09T09:13:39.008Z,1011.6
2024-05-09T09:14:55.141Z,1011.6
2024-05-09T09:16:11.280Z,1011.6
2024-05-09T09:17:27.415Z,1011.6
2024-05-09T09:18:43.558Z,1011.6
2024-05-09T09:19:59.687Z,1011.6
2024-05-09T09:21:15.832Z,1011.6
2024-05-09T09:22:31.959Z,1011.6
2024-05-09T09:23:48.089Z,1011.6
2024-05-09T09:25:04.242Z,1011.6
2024-05-09T09:26:20.364Z,1011.6
2024-05-09T09:27:36.512Z,1011.7
2024-05-09T09:28:52.644Z,1011.6
2024-05-09T09:30:08.760Z,1011.6
2024-05-09T09:31:24.908Z,1011.6
2024-05-09T09:32:41.056Z,1011.6
2024-05-09T09:33:57.176Z,1011.6
2024-05-09T09:35:13.320Z,1011.7
2024-05-09T09:36:29.444Z,1011.7
2024-05-09T09:37:45.654Z,1011.7
2024-05-09T09:39:00.901Z,1011.7
2024-05-09T09:40:17.080Z,1011.7
2024-05-09T09:41:32.304Z,1011.7
2024-05-09T09:42:48.433Z,1011.7
2024-05-09T09:44:04.556Z,1011.7
2024-05-09T09:45:20.686Z,1011.7
2024-05-09T09:46:36.818Z,1011.7
2024-05-09T09:47:52.967Z,1011.6
2024-05-09T09:49:09.099Z,1011.6
2024-05-09T09:50:25.248Z,1011.6
2024-05-09T09:51:41.374Z,1011.6
2024-05-09T09:52:57.500Z,1011.6
2024-05-09T09:54:13.653Z,1011.6
2024-05-09T09:55:29.790Z,1011.6
2024-05-09T09:56:45.928Z,1011.6
2024-05-09T09:58:02.048Z,1011.6
2024-05-09T09:59:18.196Z,1011.6
2024-05-09T10:00:34.342Z,1011.6
2024-05-09T10:01:50.473Z,1011.6
2024-05-09T10:03:06.595Z,1011.6
2024-05-09T10:04:22.740Z,1011.6
2024-05-09T10:05:38.874Z,1011.6
2024-05-09T10:06:55.021Z,1011.6
2024-05-09T10:08:11.143Z,1011.6
2024-05-09T10:09:27.287Z,1011.5
2024-05-09T10:10:43.425Z,1011.5
2024-05-09T10:11:59.554Z,1011.5
2024-05-09T10:13:15.745Z,1011.5
2024-05-09T10:14:30.992Z,1011.5
2024-05-09T10:15:46.204Z,1011.5
2024-05-09T10:17:02.345Z,1011.5
2024-05-09T10:18:18.475Z,1011.5
2024-05-09T10:19:34.000Z,1011.5
2024-05-09T10:20:50.746Z,1011.4
2024-05-09T10:22:06.883Z,1011.4
2024-05-09T10:23:23.015Z,1011.4
2024-05-09T10:24:39.163Z,1011.4
2024-05-09T10:25:55.296Z,1011.4
2024-05-09T10:27:11.424Z,1011.3
2024-05-09T10:28:27.550Z,1011.4
2024-05-09T10:29:43.705Z,1011.4
2024-05-09T10:30:59.829Z,1011.3
2024-05-09T10:32:15.962Z,1011.4
2024-05-09T10:33:32.097Z,1011.4
2024-05-09T10:34:48.245Z,1011.4
2024-05-09T10:36:04.379Z,1011.3
2024-05-09T10:37:20.511Z,1011.4
2024-05-09T10:38:36.643Z,1011.4
2024-05-09T10:39:52.793Z,1011.3
2024-05-09T10:41:08.921Z,1011.3
2024-05-09T10:42:25.065Z,1011.3
2024-05-09T10:43:41.201Z,1011.4
2024-05-09T10:44:57.329Z,1011.3
2024-05-09T10:46:13.465Z,1011.3
2024-05-09T10:47:29.663Z,1011.2
2024-05-09T10:48:44.905Z,1011.2
2024-05-09T10:50:00.108Z,1011.2
2024-05-09T10:51:16.240Z,1011.2
2024-05-09T10:52:32.380Z,1011.3
2024-05-09T10:53:48.524Z,1011.3
2024-05-09T10:55:04.654Z,1011.2
2024-05-09T10:56:20.786Z,1011.1
2024-05-09T10:57:36.925Z,1011.1
2024-05-09T10:58:53.069Z,1011.1
2024-05-09T11:00:09.206Z,1011.1
2024-05-09T11:01:25.345Z,1011.1
2024-05-09T11:02:41.474Z,1011
2024-05-09T11:03:57.614Z,1011
2024-05-09T11:05:13.759Z,1011
2024-05-09T11:06:29.880Z,1011.1
2024-05-09T11:07:46.025Z,1011
2024-05-09T11:09:02.142Z,1011.1
2024-05-09T11:10:18.291Z,1011
2024-05-09T11:11:34.430Z,1011.1
2024-05-09T11:12:50.562Z,1011
2024-05-09T11:14:06.691Z,1011
2024-05-09T11:15:22.831Z,1011
2024-05-09T11:16:38.971Z,1011
2024-05-09T11:17:55.121Z,1011
2024-05-09T11:19:11.239Z,1011
2024-05-09T11:20:27.380Z,1011
2024-05-09T11:21:43.579Z,1011
2024-05-09T11:22:58.810Z,1011
2024-05-09T11:24:15.000Z,1011
2024-05-09T11:25:30.208Z,1011
2024-05-09T11:26:46.339Z,1010.9
2024-05-09T11:28:02.499Z,1010.9
2024-05-09T11:29:18.624Z,1010.9
2024-05-09T11:30:34.752Z,1010.9
2024-05-09T11:31:50.892Z,1010.9
2024-05-09T11:33:07.026Z,1010.9
2024-05-09T11:34:23.168Z,1010.9
2024-05-09T11:35:39.311Z,1010.9
2024-05-09T11:36:55.430Z,1010.9
2024-05-09T11:38:11.571Z,1010.8
2024-05-09T11:39:27.713Z,1010.8
2024-05-09T11:40:43.855Z,1010.8
2024-05-09T11:41:59.991Z,1010.7
2024-05-09T11:43:16.112Z,1010.7
2024-05-09T11:44:32.246Z,1010.7
2024-05-09T11:45:48.378Z,1010.7
2024-05-09T11:47:04.529Z,1010.7
2024-05-09T11:48:20.657Z,1010.7
2024-05-09T11:49:36.799Z,1010.7
2024-05-09T11:50:52.933Z,1010.7
2024-05-09T11:52:09.062Z,1010.7
2024-05-09T11:53:25.203Z,1010.7
2024-05-09T11:54:41.351Z,1010.7
2024-05-09T11:55:57.469Z,1010.6
2024-05-09T11:57:13.665Z,1010.6
2024-05-09T11:58:28.933Z,1010.6
2024-05-09T11:59:44.132Z,1010.6
2024-05-09T12:00:59.296Z,1010.6
2024-05-09T12:02:15.443Z,1010.6
2024-05-09T12:03:31.564Z,1010.6
2024-05-09T12:04:47.710Z,1010.5
2024-05-09T12:06:03.844Z,1010.6
2024-05-09T12:07:19.976Z,1010.6
2024-05-09T12:08:36.123Z,1010.6
2024-05-09T12:09:52.257Z,1010.6
2024-05-09T12:11:08.381Z,1010.6
2024-05-09T12:12:24.518Z,1010.6
2024-05-09T12:13:40.652Z,1010.6
2024-05-09T12:14:56.801Z,1010.6
2024-05-09T12:16:12.940Z,1010.6
2024-05-09T12:17:29.072Z,1010.6
2024-05-09T12:18:45.191Z,1010.5
2024-05-09T12:20:01.326Z,1010.6
2024-05-09T12:21:17.480Z,1010.5
2024-05-09T12:22:33.605Z,1010.5
2024-05-09T12:23:49.754Z,1010.5
2024-05-09T12:25:05.886Z,1010.5
2024-05-09T12:26:22.010Z,1010.5
2024-05-09T12:27:38.152Z,1010.5
2024-05-09T12:28:54.295Z,1010.5
2024-05-09T12:30:10.433Z,1010.5
2024-05-09T12:31:26.548Z,1010.5
2024-05-09T12:32:42.690Z,1010.5
2024-05-09T12:33:58.848Z,1010.5
2024-05-09T12:35:14.970Z,1010.4
2024-05-09T12:36:31.114Z,1010.5
2024-05-09T12:37:47.236Z,1010.5
2024-05-09T12:39:03.372Z,1010.4
2024-05-09T12:40:19.514Z,1010.4
2024-05-09T12:41:35.646Z,1010.4
2024-05-09T12:42:51.784Z,1010.3
2024-05-09T12:44:07.914Z,1010.4
2024-05-09T12:45:24.045Z,1010.4
2024-05-09T12:46:40.200Z,1010.4
2024-05-09T12:47:56.400Z,1010.4
2024-05-09T12:49:11.639Z,1010.4
2024-05-09T12:50:26.847Z,1010.3
2024-05-09T12:51:42.978Z,1010.3
2024-05-09T12:52:59.100Z,1010.3
2024-05-09T12:54:15.238Z,1010.3
2024-05-09T12:55:31.369Z,1010.3
2024-05-09T12:56:47.523Z,1010.4
2024-05-09T12:58:03.650Z,1010.3
2024-05-09T12:59:19.786Z,1010.3
2024-05-09T13:00:35.924Z,1010.3
2024-05-09T13:01:52.065Z,1010.2
2024-05-09T13:03:08.204Z,1010.3
2024-05-09T13:04:24.346Z,1010.2
2024-05-09T13:05:40.481Z,1010.2
2024-05-09T13:06:56.605Z,1010.1
2024-05-09T13:08:12.733Z,1010.1
2024-05-09T13:09:28.892Z,1010.1
2024-05-09T13:10:45.013Z,1010.1
2024-05-09T13:12:01.155Z,1010.1
2024-05-09T13:13:17.286Z,1010
2024-05-09T13:14:33.420Z,1010
2024-05-09T13:15:49.561Z,1010
2024-05-09T13:17:05.705Z,1010
2024-05-09T13:18:21.834Z,1010
2024-05-09T13:19:37.961Z,1009.9
2024-05-09T13:20:54.099Z,1009.9
2024-05-09T13:22:10.308Z,1009.9
2024-05-09T13:23:25.551Z,1009.9
2024-05-09T13:24:40.756Z,1009.9
2024-05-09T13:25:56.890Z,1009.9
2024-05-09T13:27:13.034Z,1009.9
2024-05-09T13:28:29.170Z,1009.8
2024-05-09T13:29:45.299Z,1009.9
2024-05-09T13:31:01.439Z,1009.8
2024-05-09T13:32:17.586Z,1009.8
2024-05-09T13:33:33.721Z,1009.8
2024-05-09T13:34:49.850Z,1009.8
2024-05-09T13:36:05.997Z,1009.8
2024-05-09T13:37:22.123Z,1009.8
2024-05-09T13:38:38.264Z,1009.8
2024-05-09T13:39:54.404Z,1009.8
2024-05-09T13:41:10.534Z,1009.8
2024-05-09T13:42:26.674Z,1009.8
2024-05-09T13:43:42.809Z,1009.8
2024-05-09T13:44:58.949Z,1009.7
2024-05-09T13:46:15.077Z,1009.6
2024-05-09T13:47:31.216Z,1009.6
2024-05-09T13:48:47.361Z,1009.6
2024-05-09T13:50:03.493Z,1009.6
2024-05-09T13:51:19.631Z,1009.6
2024-05-09T13:52:35.774Z,1009.6
2024-05-09T13:53:51.904Z,1009.6
2024-05-09T13:55:08.028Z,1009.6
2024-05-09T13:56:24.232Z,1009.5
2024-05-09T13:57:39.459Z,1009.5
2024-05-09T13:58:55.672Z,1009.5
2024-05-09T14:00:10.874Z,1009.5
2024-05-09T14:01:27.016Z,1009.4
2024-05-09T14:02:43.145Z,1009.5
2024-05-09T14:03:59.271Z,1009.4
2024-05-09T14:05:15.419Z,1009.4
2024-05-09T14:06:31.551Z,1009.4
2024-05-09T14:07:47.690Z,1009.3
2024-05-09T14:09:03.822Z,1009.4
2024-05-09T14:10:19.961Z,1009.3
2024-05-09T14:11:36.103Z,1009.4
2024-05-09T14:12:52.224Z,1009.3
2024-05-09T14:14:08.385Z,1009.4
2024-05-09T14:15:24.513Z,1009.3
2024-05-09T14:16:40.638Z,1009.3
2024-05-09T14:17:56.769Z,1009.3
2024-05-09T14:19:12.913Z,1009.3
2024-05-09T14:20:29.067Z,1009.3
2024-05-09T14:21:45.188Z,1009.2
2024-05-09T14:23:01.336Z,1009.3
2024-05-09T14:24:17.454Z,1009.2
2024-05-09T14:25:33.595Z,1009.3
2024-05-09T14:26:49.746Z,1009.2
2024-05-09T14:28:05.885Z,1009.2
2024-05-09T14:29:21.999Z,1009.2
2024-05-09T14:30:38.143Z,1009.2
2024-05-09T14:31:54.337Z,1009.2
2024-05-09T14:33:09.572Z,1009.3
2024-05-09T14:34:24.777Z,1009.2
2024-05-09T14:35:40.914Z,1009.2
2024-05-09T14:36:57.064Z,1009.1
2024-05-09T14:38:13.188Z,1009.1
2024-05-09T14:39:29.336Z,1009.1
2024-05-09T14:40:45.462Z,1009.1
2024-05-09T14:42:01.589Z,1009
2024-05-09T14:43:17.751Z,1009
2024-05-09T14:44:33.869Z,1009.1
2024-05-09T14:45:50.003Z,1009.1
2024-05-09T14:47:06.150Z,1009.1
2024-05-09T14:48:22.278Z,1009
2024-05-09T14:49:38.424Z,1009
2024-05-09T14:50:54.566Z,1009
2024-05-09T14:52:10.689Z,1008.9
2024-05-09T14:53:26.827Z,1009
2024-05-09T14:54:42.952Z,1008.9
2024-05-09T14:55:59.109Z,1008.9
2024-05-09T14:57:15.235Z,1008.9
2024-05-09T14:58:31.369Z,1008.8
2024-05-09T14:59:47.502Z,1008.8
2024-05-09T15:01:03.637Z,1008.8
2024-05-09T15:02:19.799Z,1008.9
2024-05-09T15:03:35.929Z,1008.8
2024-05-09T15:04:52.069Z,1008.8
2024-05-09T15:06:08.263Z,1008.8
2024-05-09T15:07:23.496Z,1008.8
2024-05-09T15:08:38.696Z,1008.8
2024-05-09T15:09:53.861Z,1008.8
2024-05-09T15:11:10.007Z,1008.8
2024-05-09T15:12:26.135Z,1008.8
2024-05-09T15:13:42.272Z,1008.7
2024-05-09T15:14:58.400Z,1008.7
2024-05-09T15:16:14.526Z,1008.7
2024-05-09T15:17:30.691Z,1008.7
2024-05-09T15:18:46.816Z,1008.7
2024-05-09T15:20:02.960Z,1008.6
2024-05-09T15:21:19.091Z,1008.6
2024-05-09T15:22:35.213Z,1008.6
2024-05-09T15:23:51.370Z,1008.6
2024-05-09T15:25:07.503Z,1008.7
2024-05-09T15:26:23.626Z,1008.7
2024-05-09T15:27:39.763Z,1008.6
2024-05-09T15:28:55.904Z,1008.6
2024-05-09T15:30:12.041Z,1008.5
2024-05-09T15:31:28.187Z,1008.5
2024-05-09T15:32:44.327Z,1008.6
2024-05-09T15:34:00.457Z,1008.6
2024-05-09T15:35:16.588Z,1008.6
2024-05-09T15:36:32.725Z,1008.6
2024-05-09T15:37:48.861Z,1008.6
2024-05-09T15:39:04.989Z,1008.6
2024-05-09T15:40:21.136Z,1008.5
2024-05-09T15:41:37.269Z,1008.5
2024-05-09T15:44:09.556Z,1008.5
2024-05-09T15:45:25.689Z,1008.5
2024-05-09T15:46:41.825Z,1008.5
2024-05-09T15:47:57.946Z,1008.4
2024-05-09T15:49:14.096Z,1008.4
2024-05-09T15:50:30.227Z,1008.4
2024-05-09T15:51:46.364Z,1008.4
2024-05-09T15:53:02.490Z,1008.4
2024-05-09T15:54:18.628Z,1008.4
2024-05-09T15:55:34.782Z,1008.4
2024-05-09T15:56:50.974Z,1008.4
2024-05-09T15:58:06.214Z,1008.4